Time;durP1;ratioP1;P1;durP2;ratioP2;P2;SDS_P1;SDS_P2;PMS_P1;PMS_P2;Temp;Humidity;BMP_temperature;BMP_pressure;BME280_temperature;BME280_humidity;BME280_pressure;Samples;Min_cycle;Max_cycle;Signal;HPM_P1;HPM_P2
2022/02/03 00:00:46;;;;;;;9.82;7.47;;;;;;;4.52;65.24;100944.88;2105437;28;20209;-67
2022/02/03 00:03:10;;;;;;;9.30;7.60;;;;;;;4.52;65.70;100947.59;2106268;28;20659;-67
2022/02/03 00:04:15;;;;;;;12.27;8.32;;;;;;;4.51;65.55;100951.53;2105136;28;20173;-67
2022/02/03 00:05:23;;;;;;;11.25;8.05;;;;;;;4.59;65.67;100944.91;2104718;28;20628;-67
2022/02/03 00:06:33;;;;;;;11.50;7.63;;;;;;;4.00;65.23;100855.59;2105537;28;20209;-67
2022/02/03 00:07:53;;;;;;;8.68;7.35;;;;;;;4.60;65.49;100940.97;2105264;28;20249;-67
2022/02/03 00:16:43;;;;;;;11.68;7.50;;;;;;;4.60;64.98;100955.50;2106419;28;20158;-67
2022/02/03 00:24:16;;;;;;;9.48;7.68;;;;;;;4.43;64.52;100969.09;2105901;28;20183;-67
2022/02/03 00:26:25;;;;;;;9.82;7.95;;;;;;;4.48;65.19;100974.25;2106124;28;20226;-67
2022/02/03 00:28:46;;;;;;;9.80;7.72;;;;;;;4.29;65.17;100969.81;2105587;28;20304;-67
2022/02/03 00:30:00;;;;;;;8.20;7.15;;;;;;;4.37;65.26;100982.38;2106263;28;20609;-67
2022/02/03 00:31:10;;;;;;;11.88;7.93;;;;;;;4.37;65.27;100978.88;2106159;28;20168;-67
2022/02/03 00:32:28;;;;;;;12.00;7.55;;;;;;;3.61;65.83;100889.38;2104576;28;20722;-67
2022/02/03 00:33:36;;;;;;;9.60;7.90;;;;;;;3.34;66.02;100858.59;2105818;28;20225;-67
2022/02/03 00:35:05;;;;;;;9.88;8.10;;;;;;;4.14;65.80;100976.34;2105312;28;20167;-67
2022/02/03 00:37:14;;;;;;;10.17;7.87;;;;;;;3.97;66.78;100952.34;2105583;28;20183;-67
2022/02/03 00:49:48;;;;;;;10.75;7.90;;;;;;;4.04;66.76;100981.75;2090375;28;20203;-67
2022/02/03 00:50:51;;;;;;;11.23;8.27;;;;;;;4.12;66.50;100986.13;2101285;28;20556;-67
2022/02/03 00:51:57;;;;;;;10.18;8.18;;;;;;;4.09;66.55;100989.63;2096252;28;20195;-67
2022/02/03 00:53:01;;;;;;;10.68;8.10;;;;;;;4.16;66.66;101001.44;2088238;28;20380;-67
2022/02/03 00:54:07;;;;;;;10.63;8.57;;;;;;;3.96;66.46;100950.72;2087422;28;20197;-67
2022/02/03 00:55:08;;;;;;;10.75;8.43;;;;;;;4.10;66.62;100980.25;2086009;28;20190;-67
2022/02/03 00:56:15;;;;;;;11.30;8.53;;;;;;;4.18;66.63;100993.63;2096583;28;20166;-67
2022/02/03 00:57:27;;;;;;;10.57;8.18;;;;;;;4.18;66.43;100984.59;2097629;28;20661;-67
2022/02/03 00:58:30;;;;;;;10.38;8.13;;;;;;;3.66;65.88;100886.28;2099717;28;20549;-67
2022/02/03 00:59:38;;;;;;;10.40;7.82;;;;;;;4.24;66.26;100972.91;2105458;28;20673;-67
2022/02/03 01:00:42;;;;;;;10.43;8.00;;;;;;;4.27;66.18;100957.63;2105866;28;20190;-67
2022/02/03 01:01:48;;;;;;;9.55;8.52;;;;;;;4.39;65.96;100984.75;2105335;28;20181;-67
2022/02/03 01:02:55;;;;;;;9.23;7.93;;;;;;;4.38;65.33;100980.44;2105268;28;20188;-67
2022/02/03 01:04:00;;;;;;;10.27;8.00;;;;;;;4.37;65.70;100993.38;2105005;28;20715;-67
2022/02/03 01:05:03;;;;;;;10.45;8.10;;;;;;;4.29;66.02;100974.50;2104775;28;20242;-67
2022/02/03 01:06:05;;;;;;;10.50;7.97;;;;;;;4.36;65.93;100980.03;2105788;28;20189;-66
2022/02/03 01:07:16;;;;;;;10.27;7.97;;;;;;;4.34;66.17;100991.41;2105934;28;20177;-67
2022/02/03 01:08:20;;;;;;;9.57;7.55;;;;;;;3.75;65.59;100903.19;2096811;28;20244;-67
2022/02/03 01:09:24;;;;;;;9.07;7.53;;;;;;;4.41;65.49;100988.69;2096981;28;20201;-67
2022/02/03 01:10:30;;;;;;;12.20;8.00;;;;;;;4.31;65.99;100977.66;2096864;28;20173;-67
2022/02/03 01:11:37;;;;;;;9.88;7.88;;;;;;;4.47;65.73;100984.41;2097058;28;20630;-67
2022/02/03 01:15:59;;;;;;;9.93;8.00;;;;;;;3.88;65.17;100896.22;2114246;28;20255;-67
2022/02/03 01:18:54;;;;;;;10.18;7.18;;;;;;;4.52;65.52;101006.00;2105870;28;20183;-67
2022/02/03 01:33:32;;;;;;;8.68;6.75;;;;;;;4.39;65.58;101010.25;2105628;28;20170;-67
2022/02/03 01:36:48;;;;;;;9.15;6.60;;;;;;;4.40;65.37;101008.28;2104693;28;20184;-67
2022/02/03 01:44:29;;;;;;;7.88;6.82;;;;;;;4.35;65.42;101003.94;2105435;28;20255;-67
2022/02/03 01:46:55;;;;;;;9.32;6.38;;;;;;;4.26;65.01;101011.72;2105646;28;20196;-67
2022/02/03 01:48:19;;;;;;;9.45;6.18;;;;;;;4.25;65.32;101012.88;2105504;28;20264;-67
2022/02/03 01:49:40;;;;;;;9.25;6.63;;;;;;;4.22;65.56;101010.13;2097428;28;20167;-67
2022/02/03 01:52:05;;;;;;;9.35;6.35;;;;;;;3.66;65.03;100916.41;2103927;28;20205;-67
2022/02/03 01:53:08;;;;;;;10.15;6.35;;;;;;;4.39;64.78;101020.44;2105602;28;20177;-67
2022/02/03 01:54:12;;;;;;;9.15;6.63;;;;;;;4.37;64.80;101020.03;2105130;28;20322;-67
2022/02/03 01:55:16;;;;;;;8.75;6.03;;;;;;;4.37;64.33;101026.28;2104937;28;20184;-67
2022/02/03 01:56:28;;;;;;;7.68;6.45;;;;;;;4.23;64.42;101015.22;2105618;28;20258;-67
2022/02/03 01:57:57;;;;;;;8.10;6.00;;;;;;;4.27;65.34;101023.47;2105725;28;20230;-67
2022/02/03 01:59:01;;;;;;;8.18;5.72;;;;;;;4.31;64.47;101025.06;2097840;28;20215;-67
2022/02/03 02:00:15;;;;;;;8.50;5.85;;;;;;;3.54;64.41;100928.44;2105702;28;20181;-67
2022/02/03 02:01:27;;;;;;;7.72;6.30;;;;;;;4.29;64.49;101032.91;2105110;28;20188;-67
2022/02/03 02:02:32;;;;;;;7.95;5.88;;;;;;;4.27;64.45;101027.00;2105080;28;20164;-67
2022/02/03 02:03:46;;;;;;;8.57;5.95;;;;;;;4.23;64.95;101028.13;2104460;28;20185;-67
2022/02/03 02:05:09;;;;;;;8.10;6.15;;;;;;;3.80;64.93;100954.94;2105140;28;20161;-67
2022/02/03 02:06:27;;;;;;;7.88;6.15;;;;;;;3.65;64.57;100932.06;2103618;28;20250;-67
2022/02/03 02:07:56;;;;;;;7.50;5.97;;;;;;;4.23;64.91;101037.16;2105648;28;20232;-67
2022/02/03 02:09:25;;;;;;;9.05;6.03;;;;;;;4.24;64.61;101036.00;2108595;28;20711;-67
2022/02/03 02:10:58;;;;;;;7.53;5.38;;;;;;;4.29;64.43;101035.66;2109599;28;20180;-67
2022/02/03 02:12:36;;;;;;;7.57;5.63;;;;;;;4.38;64.36;101044.34;2108139;28;20179;-67
2022/02/03 02:14:06;;;;;;;9.65;5.97;;;;;;;4.34;64.15;101040.00;2114750;28;20158;-67
2022/02/03 02:40:03;;;;;;;7.72;5.32;;;;;;;4.25;63.96;101073.22;2107002;28;20165;-67
2022/02/03 02:42:34;;;;;;;7.32;5.43;;;;;;;4.08;64.39;101057.41;2106483;28;20195;-67
2022/02/03 02:44:01;;;;;;;9.52;5.32;;;;;;;4.20;64.33;101072.81;2106085;28;20724;-67
2022/02/03 02:45:05;;;;;;;8.95;5.50;;;;;;;4.12;63.98;101071.16;2105298;28;20155;-67
2022/02/03 02:46:09;;;;;;;7.80;6.00;;;;;;;4.21;64.29;101079.88;2106607;28;20180;-67
2022/02/03 02:47:28;;;;;;;9.27;5.60;;;;;;;4.19;63.80;101063.78;2106934;28;20256;-67
2022/02/03 02:48:56;;;;;;;6.85;5.70;;;;;;;4.21;64.56;101072.41;2106950;28;20169;-67
2022/02/03 02:50:05;;;;;;;6.25;5.20;;;;;;;3.45;64.31;100962.81;2106972;28;20186;-67
2022/02/03 02:51:14;;;;;;;7.68;5.60;;;;;;;4.29;64.53;101084.22;2113923;28;20186;-67
2022/02/03 02:52:27;;;;;;;8.23;5.90;;;;;;;3.57;64.06;100988.00;2115200;28;20162;-67
2022/02/03 02:55:28;;;;;;;8.73;5.78;;;;;;;4.28;64.38;101077.19;2112729;28;20666;-67
2022/02/03 02:57:01;;;;;;;9.40;5.30;;;;;;;4.27;64.08;101083.84;2106944;28;20205;-67
2022/02/03 02:59:33;;;;;;;8.07;5.45;;;;;;;4.17;63.85;101095.50;2106819;28;20215;-67
2022/02/03 03:30:19;;;;;;;7.28;5.03;;;;;;;3.86;63.28;101101.44;2106618;28;20174;-67
2022/02/03 03:34:29;;;;;;;7.05;4.45;;;;;;;3.67;63.07;101098.88;2106182;28;20174;-67
2022/02/03 03:35:42;;;;;;;7.60;4.80;;;;;;;3.98;63.01;101153.28;2105535;28;20172;-67
2022/02/03 03:36:47;;;;;;;6.90;4.95;;;;;;;3.39;63.04;101066.44;2106438;28;20152;-67
2022/02/03 03:37:49;;;;;;;7.47;4.95;;;;;;;4.03;63.07;101153.75;2106345;28;20165;-67
2022/02/03 03:38:50;;;;;;;6.40;5.28;;;;;;;4.06;62.56;101158.47;2106338;28;20190;-67
2022/02/03 03:39:57;;;;;;;6.85;4.95;;;;;;;3.66;62.50;101080.84;2106267;28;20214;-67
2022/02/03 03:40:59;;;;;;;8.65;5.28;;;;;;;4.18;62.21;101152.72;2105814;28;20590;-67
2022/02/03 03:42:02;;;;;;;6.25;4.88;;;;;;;4.13;62.16;101150.31;2105475;28;20170;-67
2022/02/03 03:43:05;;;;;;;6.55;5.00;;;;;;;4.05;62.19;101158.84;2106549;28;20178;-67
2022/02/03 03:44:07;;;;;;;6.50;5.05;;;;;;;4.05;62.98;101156.13;2105642;28;20187;-67
2022/02/03 03:45:10;;;;;;;7.72;5.05;;;;;;;4.01;62.17;101149.78;2105815;28;20604;-67
2022/02/03 03:46:20;;;;;;;7.57;5.13;;;;;;;4.16;62.58;101165.25;2106460;28;20266;-67
2022/02/03 03:47:27;;;;;;;5.82;4.50;;;;;;;4.15;62.08;101166.41;2106164;28;20541;-67
2022/02/03 03:48:40;;;;;;;6.57;4.70;;;;;;;3.46;62.67;101063.81;2105882;28;20169;-67
2022/02/03 03:49:46;;;;;;;5.80;4.65;;;;;;;4.07;62.26;101172.97;2106653;28;20172;-67
2022/02/03 03:50:53;;;;;;;5.88;4.90;;;;;;;4.02;62.19;101160.41;2106272;28;20178;-67
2022/02/03 03:52:19;;;;;;;6.82;5.05;;;;;;;4.01;62.19;101167.03;2106143;28;20174;-67
2022/02/03 03:53:39;;;;;;;6.80;5.00;;;;;;;3.20;62.43;101038.44;2106117;28;20646;-67
2022/02/03 03:54:54;;;;;;;6.05;5.00;;;;;;;3.53;62.50;101091.28;2106422;28;20162;-67
2022/02/03 04:44:29;;;;;;;5.82;4.85;;;;;;;2.86;62.30;101097.81;2105648;28;20234;-67
2022/02/03 04:58:45;;;;;;;5.63;3.88;;;;;;;3.31;62.20;101195.47;2097735;28;20158;-67
2022/02/03 05:04:16;;;;;;;5.57;4.33;;;;;;;3.61;62.66;101286.75;2096159;28;20209;-67
2022/02/03 05:07:48;;;;;;;5.65;4.30;;;;;;;3.64;62.47;101296.97;2106032;28;20175;-67
2022/02/03 05:09:23;;;;;;;6.20;4.72;;;;;;;3.63;62.78;101298.13;2105810;28;20208;-67
2022/02/03 05:10:59;;;;;;;5.40;4.25;;;;;;;3.60;62.36;101298.88;2105992;28;20628;-67
2022/02/03 05:12:28;;;;;;;5.75;4.57;;;;;;;3.59;62.54;101302.78;2104888;28;20168;-67
2022/02/03 05:43:18;;;;;;;7.57;5.13;;;;;;;3.35;62.74;101383.41;2098242;28;20173;-67
2022/02/03 05:44:47;;;;;;;9.15;5.18;;;;;;;3.39;62.91;101387.00;2098634;28;20191;-67
2022/02/03 05:46:06;;;;;;;7.97;5.93;;;;;;;2.84;62.50;101304.63;2105545;28;20183;-67
2022/02/03 05:54:48;;;;;;;9.13;6.07;;;;;;;3.04;63.02;101341.78;2110538;28;20210;-67
2022/02/03 06:02:34;;;;;;;7.95;4.63;;;;;;;3.60;62.51;101411.22;2106876;28;20718;-67
2022/02/03 06:09:38;;;;;;;5.15;4.20;;;;;;;2.99;61.67;101320.94;2107145;28;20229;-64
2022/02/03 06:13:31;;;;;;;6.78;4.80;;;;;;;3.44;61.99;101396.88;2107382;28;20290;-66
2022/02/03 06:14:42;;;;;;;6.78;4.38;;;;;;;3.77;61.83;101438.13;2106814;28;20177;-65
2022/02/03 06:16:02;;;;;;;8.65;4.90;;;;;;;2.56;61.71;101241.97;2107029;28;20170;-66
2022/02/03 06:17:18;;;;;;;7.28;4.65;;;;;;;3.85;61.70;101439.84;2106828;28;20172;-64
2022/02/03 06:23:30;;;;;;;6.45;4.00;;;;;;;3.97;61.01;101434.16;2107333;28;20169;-66
2022/02/03 06:24:35;;;;;;;6.10;4.00;;;;;;;4.01;61.27;101443.25;2106934;28;20247;-64
2022/02/03 06:28:02;;;;;;;6.38;4.00;;;;;;;4.08;60.79;101448.81;2107392;28;20248;-64
2022/02/03 06:29:03;;;;;;;5.10;4.10;;;;;;;4.07;60.41;101439.81;2106987;28;20180;-65
2022/02/03 06:30:06;;;;;;;6.13;3.80;;;;;;;4.04;60.66;101456.19;2106759;28;20189;-67
2022/02/03 06:31:07;;;;;;;6.22;4.13;;;;;;;4.16;60.81;101456.00;2107038;28;20202;-68
2022/02/03 06:32:08;;;;;;;5.50;4.00;;;;;;;4.17;61.25;101452.91;2105890;28;20188;-67
2022/02/03 06:33:09;;;;;;;5.03;3.63;;;;;;;4.22;61.00;101454.53;2106440;28;20176;-66
2022/02/03 06:34:11;;;;;;;6.82;4.00;;;;;;;4.12;60.78;101438.69;2106609;28;20642;-65
2022/02/03 06:35:13;;;;;;;5.72;3.90;;;;;;;4.21;60.65;101450.22;2106062;28;20203;-65
2022/02/03 06:36:14;;;;;;;5.15;3.33;;;;;;;4.26;60.48;101461.66;2106646;28;20187;-66
2022/02/03 06:37:14;;;;;;;4.97;3.80;;;;;;;4.16;60.60;101440.31;2107160;28;20173;-66
2022/02/03 06:38:15;;;;;;;5.53;3.93;;;;;;;4.31;60.66;101472.31;2107198;28;20166;-66
2022/02/03 06:39:18;;;;;;;4.50;3.53;;;;;;;4.29;61.02;101471.09;2106517;28;20175;-66
2022/02/03 06:40:19;;;;;;;4.82;3.42;;;;;;;4.28;60.71;101477.75;2106391;28;20175;-66
2022/02/03 06:41:19;;;;;;;5.13;3.77;;;;;;;4.27;61.02;101479.69;2106107;28;20271;-67
2022/02/03 06:42:20;;;;;;;5.50;4.07;;;;;;;4.26;60.52;101461.66;2106918;28;20181;-66
2022/02/03 06:43:20;;;;;;;5.63;3.90;;;;;;;4.36;60.42;101476.69;2106656;28;20181;-66
2022/02/03 06:44:28;;;;;;;6.07;3.90;;;;;;;4.34;60.50;101479.00;2105800;28;20664;-67
2022/02/03 06:45:38;;;;;;;6.85;4.22;;;;;;;4.39;60.48;101484.19;2105668;28;20219;-66
2022/02/03 06:46:42;;;;;;;5.82;3.78;;;;;;;4.43;60.26;101483.09;2106271;28;20202;-65
2022/02/03 06:47:55;;;;;;;4.88;3.47;;;;;;;4.45;61.04;101488.19;2106700;28;20180;-64
2022/02/03 06:49:08;;;;;;;6.25;3.80;;;;;;;4.23;60.28;101450.63;2107084;28;20259;-66
2022/02/03 06:50:19;;;;;;;6.28;3.70;;;;;;;4.10;60.08;101424.56;2106435;28;20188;-65
2022/02/03 06:51:30;;;;;;;6.85;3.65;;;;;;;3.91;60.57;101411.72;2106148;28;20162;-64
2022/02/03 06:53:51;;;;;;;6.00;3.72;;;;;;;4.12;60.65;101425.00;2106394;28;20168;-64
2022/02/03 06:56:01;;;;;;;5.20;3.57;;;;;;;4.16;59.95;101426.59;2106897;28;20259;-64
2022/02/03 06:57:05;;;;;;;5.88;3.35;;;;;;;4.68;60.28;101502.66;2106646;28;20164;-66
2022/02/03 06:58:14;;;;;;;4.97;3.88;;;;;;;4.70;60.24;101512.09;2107199;28;20177;-63
2022/02/03 06:59:17;;;;;;;5.45;3.63;;;;;;;4.72;60.42;101511.72;2107268;28;20225;-66
2022/02/03 07:00:26;;;;;;;5.88;3.78;;;;;;;4.83;60.64;101507.16;2107379;28;20186;-64
2022/02/03 07:01:33;;;;;;;5.88;3.80;;;;;;;4.80;60.16;101500.47;2106571;28;20607;-65
2022/02/03 07:02:39;;;;;;;4.93;3.72;;;;;;;4.97;60.00;101512.84;2106798;28;20692;-65
2022/02/03 07:03:43;;;;;;;5.60;3.50;;;;;;;4.98;60.23;101511.69;2107218;28;20167;-65
2022/02/03 07:04:45;;;;;;;5.28;3.60;;;;;;;4.93;60.19;101515.53;2106885;28;20647;-66
2022/02/03 07:05:46;;;;;;;5.68;3.47;;;;;;;4.92;59.94;101518.69;2105246;28;20210;-65
2022/02/03 07:06:46;;;;;;;6.93;3.53;;;;;;;4.96;60.31;101517.53;2106117;28;20267;-65
2022/02/03 07:07:47;;;;;;;5.50;3.80;;;;;;;5.06;60.02;101521.59;2106608;28;20181;-66
2022/02/03 07:08:50;;;;;;;5.23;3.93;;;;;;;4.54;59.68;101439.31;2106902;28;20180;-65
2022/02/03 07:09:52;;;;;;;7.57;4.82;;;;;;;5.21;59.78;101524.16;2106815;28;20174;-65
2022/02/03 07:10:53;;;;;;;6.43;4.70;;;;;;;4.53;59.70;101416.56;2106600;28;20330;-65
2022/02/03 07:11:53;;;;;;;7.68;5.00;;;;;;;5.18;59.50;101538.63;2106507;28;20184;-65
2022/02/03 07:12:57;;;;;;;7.37;5.10;;;;;;;5.16;59.56;101493.44;2106875;28;20222;-65
2022/02/03 07:13:58;;;;;;;7.03;4.70;;;;;;;5.38;59.53;101531.03;2106637;28;20219;-64
2022/02/03 07:15:00;;;;;;;5.63;4.00;;;;;;;5.21;59.54;101504.09;2107710;28;20188;-65
2022/02/03 07:16:01;;;;;;;5.38;3.75;;;;;;;5.41;59.26;101533.81;2106873;28;20173;-65
2022/02/03 07:17:03;;;;;;;5.20;3.80;;;;;;;5.48;59.02;101531.13;2106922;28;20755;-65
2022/02/03 07:18:04;;;;;;;7.28;4.00;;;;;;;5.53;58.13;101532.78;2114159;28;20181;-65
2022/02/03 07:19:04;;;;;;;5.90;3.83;;;;;;;5.56;58.15;101532.81;2113933;28;20273;-65
2022/02/03 07:20:07;;;;;;;5.60;4.10;;;;;;;5.53;58.17;101532.78;2106847;28;20198;-65
2022/02/03 07:21:12;;;;;;;5.00;3.42;;;;;;;5.55;58.46;101531.19;2106871;28;20181;-65
2022/02/03 07:22:13;;;;;;;4.85;3.40;;;;;;;5.65;58.93;101543.50;2106518;28;20181;-65
2022/02/03 07:23:15;;;;;;;4.82;3.20;;;;;;;5.73;58.29;101540.44;2106835;28;20235;-65
2022/02/03 07:24:15;;;;;;;4.80;3.40;;;;;;;5.69;58.02;101533.31;2106101;28;20186;-65
2022/02/03 07:25:16;;;;;;;6.40;3.63;;;;;;;5.79;57.95;101547.16;2106219;28;20677;-65
2022/02/03 07:26:16;;;;;;;5.50;3.40;;;;;;;5.78;58.03;101531.03;2107312;28;20686;-65
2022/02/03 07:27:17;;;;;;;4.73;3.20;;;;;;;5.90;57.60;101550.84;2115286;28;20200;-65
2022/02/03 07:28:17;;;;;;;7.00;3.40;;;;;;;5.97;57.30;101544.63;2111203;27;20272;-65
2022/02/03 07:29:18;;;;;;;4.53;3.00;;;;;;;5.77;57.19;101519.28;2106812;28;20628;-65
2022/02/03 07:30:19;;;;;;;4.13;2.93;;;;;;;6.04;57.31;101547.44;2106648;28;20648;-65
2022/02/03 07:31:19;;;;;;;4.67;3.20;;;;;;;5.58;56.39;101472.72;2106237;28;20594;-65
2022/02/03 07:32:22;;;;;;;4.83;3.20;;;;;;;5.30;56.43;101436.72;2106275;28;20175;-65
2022/02/03 07:33:23;;;;;;;7.45;3.10;;;;;;;5.93;56.65;101528.09;2105853;28;20653;-65
2022/02/03 07:34:23;;;;;;;4.43;3.03;;;;;;;5.97;56.59;101541.88;2106272;28;20261;-65
2022/02/03 07:35:26;;;;;;;4.70;3.10;;;;;;;6.14;56.53;101547.53;2106082;28;20166;-65
2022/02/03 07:36:27;;;;;;;5.75;2.58;;;;;;;5.47;55.75;101432.53;2106120;28;20178;-65
2022/02/03 07:37:28;;;;;;;4.90;2.90;;;;;;;5.41;56.26;101445.84;2105870;28;20182;-65
2022/02/03 07:38:29;;;;;;;4.38;2.63;;;;;;;6.17;55.97;101540.50;2106287;28;20167;-64
2022/02/03 07:39:29;;;;;;;6.53;3.10;;;;;;;6.21;55.94;101553.09;2106611;28;20205;-65
2022/02/03 07:40:30;;;;;;;3.97;2.90;;;;;;;6.25;55.85;101559.44;2106665;28;20252;-65
2022/02/03 07:41:31;;;;;;;5.93;2.90;;;;;;;6.28;55.23;101557.88;2104986;28;20216;-65
2022/02/03 07:42:31;;;;;;;5.10;2.90;;;;;;;6.24;55.84;101559.81;2106220;28;20206;-65
2022/02/03 07:43:32;;;;;;;6.47;3.20;;;;;;;6.00;56.22;101544.66;2106510;28;20621;-65
2022/02/03 07:44:33;;;;;;;3.30;2.70;;;;;;;6.25;56.29;101559.44;2105914;28;20183;-65
2022/02/03 07:45:33;;;;;;;5.70;3.10;;;;;;;5.54;56.20;101449.13;2105699;28;20596;-65
2022/02/03 07:46:35;;;;;;;5.43;3.23;;;;;;;6.38;55.98;101563.47;2106228;28;20218;-65
2022/02/03 07:47:45;;;;;;;5.20;3.10;;;;;;;6.43;56.11;101567.84;2106921;28;20205;-65
2022/02/03 07:48:46;;;;;;;7.32;3.03;;;;;;;5.76;55.54;101448.94;2106457;28;20193;-65
2022/02/03 07:49:47;;;;;;;5.18;3.15;;;;;;;6.58;55.13;101581.34;2106357;28;20340;-65
2022/02/03 07:50:48;;;;;;;4.30;2.83;;;;;;;6.58;55.39;101564.81;2106021;28;20231;-65
2022/02/03 07:51:48;;;;;;;4.63;3.10;;;;;;;6.50;55.27;101556.88;2106287;28;20265;-66
2022/02/03 07:52:49;;;;;;;4.43;3.03;;;;;;;6.67;55.40;101572.75;2106718;28;20269;-65
2022/02/03 07:53:50;;;;;;;5.73;2.80;;;;;;;6.69;55.02;101575.91;2106239;28;20179;-65
2022/02/03 07:54:50;;;;;;;5.60;2.83;;;;;;;6.76;54.83;101581.47;2106082;28;20181;-65
2022/02/03 07:55:51;;;;;;;5.17;3.13;;;;;;;6.69;55.18;101564.88;2098141;28;20187;-65
2022/02/03 07:56:51;;;;;;;5.13;3.13;;;;;;;6.81;55.08;101567.34;2098281;28;20180;-66
2022/02/03 07:57:53;;;;;;;4.07;2.80;;;;;;;6.81;54.09;101583.88;2098256;28;20198;-65
2022/02/03 07:58:54;;;;;;;4.43;2.58;;;;;;;6.06;54.01;101455.09;2098224;28;20625;-65
2022/02/03 07:59:55;;;;;;;4.27;3.10;;;;;;;6.93;53.71;101589.81;2102697;28;20186;-64
2022/02/03 08:00:55;;;;;;;6.07;3.28;;;;;;;6.42;53.69;101502.94;2106495;28;20265;-65
2022/02/03 08:01:56;;;;;;;5.57;3.13;;;;;;;6.94;53.96;101583.16;2106291;28;20175;-65
2022/02/03 08:02:57;;;;;;;4.57;3.17;;;;;;;6.99;53.71;101588.31;2106524;28;20183;-65
2022/02/03 08:04:01;;;;;;;4.73;3.20;;;;;;;7.05;53.27;101597.00;2105950;28;20187;-65
2022/02/03 08:05:04;;;;;;;4.00;2.90;;;;;;;7.05;53.88;101591.47;2105357;28;20175;-65
2022/02/03 08:06:08;;;;;;;5.80;3.20;;;;;;;7.03;53.32;101591.84;2104978;28;20191;-65
2022/02/03 08:07:10;;;;;;;5.57;3.15;;;;;;;7.03;53.20;101586.34;2105833;28;20199;-65
2022/02/03 08:09:21;;;;;;;3.83;2.53;;;;;;;7.17;52.93;101591.16;2106152;28;20176;-65
2022/02/03 08:10:35;;;;;;;5.95;2.55;;;;;;;7.23;52.57;101595.91;2106242;28;20694;-65
2022/02/03 08:11:41;;;;;;;4.18;2.42;;;;;;;7.30;51.83;101606.19;2106220;28;20173;-65
2022/02/03 08:12:42;;;;;;;4.93;2.65;;;;;;;7.35;51.76;101598.34;2106620;28;20203;-65
2022/02/03 08:13:52;;;;;;;6.33;2.70;;;;;;;7.35;51.69;101609.38;2105813;28;20753;-65
2022/02/03 08:14:53;;;;;;;3.22;2.65;;;;;;;6.79;52.56;101501.59;2106064;28;20170;-65
2022/02/03 08:16:04;;;;;;;4.55;2.53;;;;;;;7.42;51.57;101598.38;2106512;28;20178;-65
2022/02/03 08:17:10;;;;;;;4.93;2.70;;;;;;;7.10;52.05;101544.25;2106500;28;20170;-65
2022/02/03 08:18:17;;;;;;;3.90;2.53;;;;;;;7.50;51.89;101604.72;2105994;28;20178;-65
2022/02/03 08:19:29;;;;;;;4.00;2.30;;;;;;;7.35;51.04;101592.84;2106675;28;20165;-65
2022/02/03 08:20:30;;;;;;;5.38;3.00;;;;;;;7.56;51.48;101614.19;2105512;28;20222;-65
2022/02/03 08:21:33;;;;;;;3.65;2.60;;;;;;;7.54;50.91;101619.31;2105111;28;20156;-65
2022/02/03 08:22:43;;;;;;;5.85;2.67;;;;;;;6.90;51.03;101507.94;2106119;28;20191;-65
2022/02/03 08:26:00;;;;;;;7.27;2.97;;;;;;;7.75;50.93;101624.91;2105724;28;20239;-65
2022/02/03 08:31:03;;;;;;;4.35;2.55;;;;;;;7.27;48.92;101527.78;2105541;28;20179;-65
2022/02/03 08:32:11;;;;;;;6.28;2.60;;;;;;;7.90;48.67;101630.06;2105988;28;20178;-64
2022/02/03 08:33:18;;;;;;;5.82;2.70;;;;;;;7.85;49.19;101622.16;2106437;28;20161;-64
2022/02/03 08:34:35;;;;;;;5.53;2.95;;;;;;;7.94;48.83;101652.19;2106033;28;20316;-65
2022/02/03 08:35:44;;;;;;;5.38;2.70;;;;;;;7.93;49.50;101622.97;2105537;28;20171;-65
2022/02/03 08:36:44;;;;;;;6.60;2.95;;;;;;;8.09;48.81;101649.06;2106486;28;20200;-65
2022/02/03 08:38:38;;;;;;;6.17;3.07;;;;;;;7.98;48.26;101623.41;2106429;28;20183;-65
2022/02/03 08:39:09;;;;;;;4.70;2.90;;;;;;;8.06;47.98;101638.81;2093779;28;20317;-65
2022/02/03 08:40:20;;;;;;;5.40;2.65;;;;;;;8.08;48.96;101646.69;2102507;28;20177;-65
2022/02/03 08:41:23;;;;;;;5.05;2.80;;;;;;;8.18;48.72;101640.41;2105641;28;20159;-65
2022/02/03 08:42:24;;;;;;;6.30;2.40;;;;;;;8.20;48.40;101657.41;2097719;28;20614;-64
2022/02/03 08:43:25;;;;;;;5.20;2.70;;;;;;;8.19;47.81;101651.06;2097887;28;20188;-65
2022/02/03 08:44:26;;;;;;;5.35;2.65;;;;;;;7.46;48.46;101535.75;2100286;28;20179;-65
2022/02/03 08:45:27;;;;;;;5.63;3.10;;;;;;;8.21;49.06;101659.75;2105646;28;20254;-65
2022/02/03 08:46:27;;;;;;;3.20;2.40;;;;;;;8.28;48.12;101647.94;2106340;28;20171;-65
2022/02/03 08:47:28;;;;;;;5.93;2.77;;;;;;;8.28;48.28;101645.97;2106305;28;20559;-65
2022/02/03 08:48:29;;;;;;;4.20;2.53;;;;;;;8.29;48.03;101647.56;2106245;28;20206;-65
2022/02/03 08:49:29;;;;;;;4.78;2.58;;;;;;;8.22;47.96;101644.78;2105913;28;20221;-65
2022/02/03 08:50:32;;;;;;;5.07;2.47;;;;;;;8.26;48.38;101664.91;2105691;28;20171;-65
2022/02/03 08:51:33;;;;;;;4.38;2.50;;;;;;;7.59;47.61;101547.22;2105110;28;20175;-65
2022/02/03 08:52:51;;;;;;;4.23;2.67;;;;;;;7.93;47.27;101651.38;2105647;28;20261;-65
2022/02/03 08:53:55;;;;;;;4.50;2.63;;;;;;;8.07;48.22;101650.63;2105487;28;20209;-65
2022/02/03 08:55:10;;;;;;;6.05;2.50;;;;;;;8.06;48.15;101654.56;2105395;28;20175;-64
2022/02/03 08:56:22;;;;;;;5.28;2.65;;;;;;;8.20;47.83;101672.00;2106299;28;20543;-65
2022/02/03 08:57:37;;;;;;;4.05;2.45;;;;;;;7.59;47.95;101602.38;2106166;28;20178;-65
2022/02/03 09:35:43;;;;;;;7.28;3.05;;;;;;;9.00;46.04;101721.03;2105439;28;20229;-64
2022/02/03 09:39:14;;;;;;;5.55;3.08;;;;;;;8.47;46.06;101648.38;2112305;28;20180;-65
2022/02/03 09:41:14;;;;;;;7.00;3.20;;;;;;;8.30;46.69;101637.31;2114378;28;20242;-64
2022/02/03 09:58:39;;;;;;;7.82;3.38;;;;;;;8.49;45.15;101636.91;2096676;28;20213;-65
2022/02/03 10:00:00;;;;;;;4.45;2.90;;;;;;;8.63;45.19;101686.66;2096678;28;20164;-64
2022/02/03 10:01:08;;;;;;;4.97;3.00;;;;;;;8.43;44.91;101697.31;2101530;28;20199;-64
2022/02/03 10:02:14;;;;;;;5.25;2.97;;;;;;;8.49;45.33;101686.66;2097091;28;20179;-65
2022/02/03 10:03:21;;;;;;;3.45;2.55;;;;;;;8.52;45.16;101686.66;2097170;28;20629;-64
2022/02/03 10:04:53;;;;;;;4.95;3.28;;;;;;;8.59;44.98;101689.44;2097062;28;20290;-65
2022/02/03 10:06:14;;;;;;;5.68;3.13;;;;;;;8.59;44.63;101686.66;2103153;28;20272;-65
2022/02/03 10:07:21;;;;;;;4.30;2.92;;;;;;;8.68;45.15;101706.44;2104984;28;20280;-64
2022/02/03 10:08:22;;;;;;;4.40;3.00;;;;;;;8.31;45.28;101614.81;2105420;28;20155;-65
2022/02/03 10:09:36;;;;;;;5.17;3.20;;;;;;;8.77;45.24;101670.09;2105490;28;20202;-65
2022/02/03 10:10:37;;;;;;;5.90;3.45;;;;;;;8.38;44.60;101581.69;2105855;28;20625;-65
2022/02/03 10:11:37;;;;;;;6.73;3.30;;;;;;;8.45;44.38;101598.25;2105047;28;20187;-64
2022/02/03 10:12:41;;;;;;;5.40;3.17;;;;;;;8.98;44.05;101665.34;2105616;28;20262;-64
2022/02/03 10:13:43;;;;;;;5.90;2.70;;;;;;;8.97;43.47;101668.53;2105202;28;20183;-64
2022/02/03 10:14:46;;;;;;;8.35;2.92;;;;;;;8.99;43.18;101675.22;2101605;28;20178;-65
2022/02/03 10:16:03;;;;;;;5.22;2.35;;;;;;;8.61;42.83;101614.44;2104723;28;20258;-65
2022/02/03 10:17:04;;;;;;;3.17;1.80;;;;;;;8.33;42.83;101584.03;2105543;28;20161;-65
2022/02/03 10:18:22;;;;;;;3.95;2.38;;;;;;;8.92;43.41;101664.16;2105195;28;20682;-65
2022/02/03 10:19:30;;;;;;;4.95;2.50;;;;;;;9.00;43.19;101676.00;2090844;28;20256;-65
2022/02/03 10:20:30;;;;;;;4.55;2.60;;;;;;;9.03;43.01;101687.06;2097001;28;20157;-65
2022/02/03 10:21:31;;;;;;;4.90;2.53;;;;;;;8.92;42.83;101685.50;2097017;28;20176;-65
2022/02/03 10:22:32;;;;;;;3.10;2.13;;;;;;;8.21;41.82;101598.25;2096773;28;20644;-65
2022/02/03 10:23:51;;;;;;;4.80;2.87;;;;;;;8.90;42.13;101676.78;2103892;28;20494;-65
2022/02/03 10:25:00;;;;;;;4.90;2.47;;;;;;;8.41;41.74;101602.19;2105463;28;20462;-65
2022/02/03 10:26:06;;;;;;;4.78;2.58;;;;;;;8.92;42.33;101691.81;2105756;28;20231;-65
2022/02/03 10:27:18;;;;;;;6.65;2.17;;;;;;;8.74;41.79;101668.13;2104931;28;20303;-64
2022/02/03 10:28:18;;;;;;;3.65;2.22;;;;;;;8.84;41.53;101703.25;2097463;28;20545;-65
2022/02/03 10:29:31;;;;;;;3.70;2.30;;;;;;;8.65;41.44;101712.72;2097667;28;20218;-64
2022/02/03 10:30:40;;;;;;;3.15;2.13;;;;;;;8.53;41.35;101696.53;2098998;28;20715;-65
2022/02/03 10:31:43;;;;;;;12.68;3.05;;;;;;;8.54;41.89;101697.31;2099243;28;20172;-65
2022/02/03 10:32:44;;;;;;;3.63;2.10;;;;;;;8.55;41.87;101696.13;2107290;28;20179;-65